sensor_id;sensor_type;location;lat;lon;timestamp;P1;durP1;ratioP1;P2;durP2;ratioP2
19814;SDS011;10067;53.092;8.800;2024-01-06T00:02:04;14.83;;;11.00;;
19814;SDS011;10067;53.092;8.800;2024-01-06T00:04:30;14.10;;;10.27;;
19814;SDS011;10067;53.092;8.800;2024-01-06T00:06:56;13.93;;;10.30;;
19814;SDS011;10067;53.092;8.800;2024-01-06T00:09:23;14.20;;;11.43;;
19814;SDS011;10067;53.092;8.800;2024-01-06T00:11:49;14.70;;;10.90;;
19814;SDS011;10067;53.092;8.800;2024-01-06T00:14:16;13.53;;;10.27;;
19814;SDS011;10067;53.092;8.800;2024-01-06T00:16:43;13.37;;;10.20;;
19814;SDS011;10067;53.092;8.800;2024-01-06T00:19:10;14.13;;;10.80;;
19814;SDS011;10067;53.092;8.800;2024-01-06T00:21:36;13.70;;;10.47;;
19814;SDS011;10067;53.092;8.800;2024-01-06T00:24:03;15.47;;;10.80;;
19814;SDS011;10067;53.092;8.800;2024-01-06T00:26:29;14.47;;;11.33;;
19814;SDS011;10067;53.092;8.800;2024-01-06T00:28:56;13.60;;;10.07;;
19814;SDS011;10067;53.092;8.800;2024-01-06T00:31:22;14.37;;;10.37;;
19814;SDS011;10067;53.092;8.800;2024-01-06T00:33:50;13.40;;;10.83;;
19814;SDS011;10067;53.092;8.800;2024-01-06T00:36:16;14.07;;;10.57;;
19814;SDS011;10067;53.092;8.800;2024-01-06T00:38:42;13.20;;;9.63;;
19814;SDS011;10067;53.092;8.800;2024-01-06T00:41:09;14.90;;;11.23;;
19814;SDS011;10067;53.092;8.800;2024-01-06T00:43:36;13.00;;;10.27;;
19814;SDS011;10067;53.092;8.800;2024-01-06T00:46:02;11.50;;;9.10;;
19814;SDS011;10067;53.092;8.800;2024-01-06T00:48:28;12.50;;;9.60;;
19814;SDS011;10067;53.092;8.800;2024-01-06T00:50:56;12.43;;;9.13;;
19814;SDS011;10067;53.092;8.800;2024-01-06T00:53:22;12.87;;;9.50;;
19814;SDS011;10067;53.092;8.800;2024-01-06T00:55:49;11.83;;;9.60;;
19814;SDS011;10067;53.092;8.800;2024-01-06T00:58:15;11.17;;;8.47;;
19814;SDS011;10067;53.092;8.800;2024-01-06T01:00:41;11.63;;;8.53;;
19814;SDS011;10067;53.092;8.800;2024-01-06T01:03:08;11.43;;;8.53;;
19814;SDS011;10067;53.092;8.800;2024-01-06T01:05:34;11.37;;;8.80;;
19814;SDS011;10067;53.092;8.800;2024-01-06T01:08:02;11.63;;;8.83;;
19814;SDS011;10067;53.092;8.800;2024-01-06T01:10:28;10.93;;;8.80;;
19814;SDS011;10067;53.092;8.800;2024-01-06T01:12:55;11.07;;;8.40;;
19814;SDS011;10067;53.092;8.800;2024-01-06T01:15:21;11.60;;;8.93;;
19814;SDS011;10067;53.092;8.800;2024-01-06T01:17:47;12.23;;;9.43;;
19814;SDS011;10067;53.092;8.800;2024-01-06T01:20:14;11.80;;;9.17;;
19814;SDS011;10067;53.092;8.800;2024-01-06T01:22:40;11.63;;;8.87;;
19814;SDS011;10067;53.092;8.800;2024-01-06T01:25:08;11.20;;;8.67;;
19814;SDS011;10067;53.092;8.800;2024-01-06T01:27:35;10.83;;;9.20;;
19814;SDS011;10067;53.092;8.800;2024-01-06T01:30:01;10.23;;;8.17;;
19814;SDS011;10067;53.092;8.800;2024-01-06T01:32:27;11.73;;;8.70;;
19814;SDS011;10067;53.092;8.800;2024-01-06T01:34:54;11.57;;;8.53;;
19814;SDS011;10067;53.092;8.800;2024-01-06T01:37:20;11.57;;;8.53;;
19814;SDS011;10067;53.092;8.800;2024-01-06T01:39:47;10.83;;;8.40;;
19814;SDS011;10067;53.092;8.800;2024-01-06T01:42:14;11.27;;;8.90;;
19814;SDS011;10067;53.092;8.800;2024-01-06T01:44:41;11.30;;;8.90;;
19814;SDS011;10067;53.092;8.800;2024-01-06T01:47:07;12.93;;;9.33;;
19814;SDS011;10067;53.092;8.800;2024-01-06T01:49:33;11.63;;;8.93;;
19814;SDS011;10067;53.092;8.800;2024-01-06T01:52:00;14.83;;;9.93;;
19814;SDS011;10067;53.092;8.800;2024-01-06T01:54:26;13.07;;;9.67;;
19814;SDS011;10067;53.092;8.800;2024-01-06T01:56:53;11.63;;;9.27;;
19814;SDS011;10067;53.092;8.800;2024-01-06T01:59:21;12.63;;;9.87;;
19814;SDS011;10067;53.092;8.800;2024-01-06T02:01:47;15.27;;;9.53;;
19814;SDS011;10067;53.092;8.800;2024-01-06T02:04:14;11.80;;;9.87;;
19814;SDS011;10067;53.092;8.800;2024-01-06T02:06:41;14.33;;;10.10;;
19814;SDS011;10067;53.092;8.800;2024-01-06T02:09:07;13.57;;;9.27;;
19814;SDS011;10067;53.092;8.800;2024-01-06T02:11:34;12.07;;;9.57;;
19814;SDS011;10067;53.092;8.800;2024-01-06T02:14:00;13.23;;;10.00;;
19814;SDS011;10067;53.092;8.800;2024-01-06T02:16:28;11.07;;;9.07;;
19814;SDS011;10067;53.092;8.800;2024-01-06T02:18:54;10.83;;;8.33;;
19814;SDS011;10067;53.092;8.800;2024-01-06T02:21:20;12.63;;;9.40;;
19814;SDS011;10067;53.092;8.800;2024-01-06T02:23:48;11.43;;;8.53;;
19814;SDS011;10067;53.092;8.800;2024-01-06T02:26:15;11.20;;;8.73;;
19814;SDS011;10067;53.092;8.800;2024-01-06T02:28:42;11.00;;;8.27;;
19814;SDS011;10067;53.092;8.800;2024-01-06T02:31:10;9.67;;;7.93;;
19814;SDS011;10067;53.092;8.800;2024-01-06T02:33:36;10.47;;;8.37;;
19814;SDS011;10067;53.092;8.800;2024-01-06T02:36:03;11.57;;;8.83;;
19814;SDS011;10067;53.092;8.800;2024-01-06T02:38:29;11.00;;;8.30;;
19814;SDS011;10067;53.092;8.800;2024-01-06T02:40:57;11.77;;;8.63;;
19814;SDS011;10067;53.092;8.800;2024-01-06T02:43:23;14.53;;;8.23;;
19814;SDS011;10067;53.092;8.800;2024-01-06T02:45:50;11.47;;;9.03;;
19814;SDS011;10067;53.092;8.800;2024-01-06T02:48:16;11.13;;;8.47;;
19814;SDS011;10067;53.092;8.800;2024-01-06T02:50:42;11.17;;;8.90;;
19814;SDS011;10067;53.092;8.800;2024-01-06T02:53:09;11.60;;;8.83;;
19814;SDS011;10067;53.092;8.800;2024-01-06T02:55:37;11.17;;;8.87;;
19814;SDS011;10067;53.092;8.800;2024-01-06T02:58:05;11.93;;;9.23;;
19814;SDS011;10067;53.092;8.800;2024-01-06T03:00:31;11.40;;;8.80;;
19814;SDS011;10067;53.092;8.800;2024-01-06T03:02:58;12.37;;;9.53;;
19814;SDS011;10067;53.092;8.800;2024-01-06T03:05:24;12.23;;;9.70;;
19814;SDS011;10067;53.092;8.800;2024-01-06T03:07:50;13.97;;;10.00;;
19814;SDS011;10067;53.092;8.800;2024-01-06T03:10:17;16.90;;;9.10;;
19814;SDS011;10067;53.092;8.800;2024-01-06T03:12:43;12.60;;;9.70;;
19814;SDS011;10067;53.092;8.800;2024-01-06T03:15:11;13.07;;;9.83;;
19814;SDS011;10067;53.092;8.800;2024-01-06T03:17:37;10.90;;;9.00;;
19814;SDS011;10067;53.092;8.800;2024-01-06T03:20:04;11.97;;;8.93;;
19814;SDS011;10067;53.092;8.800;2024-01-06T03:22:31;12.73;;;9.57;;
19814;SDS011;10067;53.092;8.800;2024-01-06T03:24:57;11.17;;;9.23;;
19814;SDS011;10067;53.092;8.800;2024-01-06T03:27:23;11.60;;;9.30;;
19814;SDS011;10067;53.092;8.800;2024-01-06T03:29:50;11.33;;;9.10;;
19814;SDS011;10067;53.092;8.800;2024-01-06T03:32:18;11.20;;;9.30;;
19814;SDS011;10067;53.092;8.800;2024-01-06T03:34:44;15.57;;;9.47;;
19814;SDS011;10067;53.092;8.800;2024-01-06T03:37:10;12.60;;;9.30;;
19814;SDS011;10067;53.092;8.800;2024-01-06T03:39:37;11.63;;;8.33;;
19814;SDS011;10067;53.092;8.800;2024-01-06T03:42:03;14.33;;;9.17;;
19814;SDS011;10067;53.092;8.800;2024-01-06T03:44:30;12.83;;;9.40;;
19814;SDS011;10067;53.092;8.800;2024-01-06T03:46:58;13.73;;;8.93;;
19814;SDS011;10067;53.092;8.800;2024-01-06T03:49:26;11.97;;;9.10;;
19814;SDS011;10067;53.092;8.800;2024-01-06T03:51:52;12.50;;;9.00;;
19814;SDS011;10067;53.092;8.800;2024-01-06T03:54:19;10.53;;;7.90;;
19814;SDS011;10067;53.092;8.800;2024-01-06T03:56:45;13.30;;;8.83;;
19814;SDS011;10067;53.092;8.800;2024-01-06T03:59:11;11.60;;;8.10;;
19814;SDS011;10067;53.092;8.800;2024-01-06T04:01:38;11.13;;;8.23;;
19814;SDS011;10067;53.092;8.800;2024-01-06T04:04:04;9.47;;;7.53;;
19814;SDS011;10067;53.092;8.800;2024-01-06T04:06:32;10.80;;;8.17;;
19814;SDS011;10067;53.092;8.800;2024-01-06T04:08:58;9.37;;;7.67;;
19814;SDS011;10067;53.092;8.800;2024-01-06T04:11:25;11.17;;;8.20;;
19814;SDS011;10067;53.092;8.800;2024-01-06T04:13:51;10.53;;;8.20;;
19814;SDS011;10067;53.092;8.800;2024-01-06T04:16:17;9.07;;;7.53;;
19814;SDS011;10067;53.092;8.800;2024-01-06T04:18:45;9.07;;;7.07;;
19814;SDS011;10067;53.092;8.800;2024-01-06T04:21:11;9.17;;;7.27;;
19814;SDS011;10067;53.092;8.800;2024-01-06T04:23:39;11.67;;;7.70;;
19814;SDS011;10067;53.092;8.800;2024-01-06T04:26:05;9.97;;;7.73;;
19814;SDS011;10067;53.092;8.800;2024-01-06T04:28:32;9.73;;;7.43;;
19814;SDS011;10067;53.092;8.800;2024-01-06T04:30:58;12.07;;;7.63;;
19814;SDS011;10067;53.092;8.800;2024-01-06T04:33:24;9.73;;;7.33;;
19814;SDS011;10067;53.092;8.800;2024-01-06T04:35:51;9.93;;;7.47;;
19814;SDS011;10067;53.092;8.800;2024-01-06T04:38:17;9.43;;;6.80;;
19814;SDS011;10067;53.092;8.800;2024-01-06T04:40:45;8.43;;;6.67;;
19814;SDS011;10067;53.092;8.800;2024-01-06T04:43:11;8.93;;;7.43;;
19814;SDS011;10067;53.092;8.800;2024-01-06T04:45:37;8.43;;;6.93;;
19814;SDS011;10067;53.092;8.800;2024-01-06T04:48:04;9.30;;;7.63;;
19814;SDS011;10067;53.092;8.800;2024-01-06T04:50:31;9.20;;;7.73;;
19814;SDS011;10067;53.092;8.800;2024-01-06T04:52:57;10.73;;;7.70;;
19814;SDS011;10067;53.092;8.800;2024-01-06T04:55:23;11.40;;;7.80;;
19814;SDS011;10067;53.092;8.800;2024-01-06T04:57:51;9.97;;;7.40;;
19814;SDS011;10067;53.092;8.800;2024-01-06T05:00:17;10.23;;;7.70;;
19814;SDS011;10067;53.092;8.800;2024-01-06T05:02:44;11.20;;;8.37;;
19814;SDS011;10067;53.092;8.800;2024-01-06T05:05:10;10.13;;;8.13;;
19814;SDS011;10067;53.092;8.800;2024-01-06T05:07:37;9.43;;;7.50;;
19814;SDS011;10067;53.092;8.800;2024-01-06T05:10:03;10.17;;;7.87;;
19814;SDS011;10067;53.092;8.800;2024-01-06T05:12:30;9.00;;;7.73;;
19814;SDS011;10067;53.092;8.800;2024-01-06T05:14:57;9.63;;;7.87;;
19814;SDS011;10067;53.092;8.800;2024-01-06T05:17:24;9.53;;;7.67;;
19814;SDS011;10067;53.092;8.800;2024-01-06T05:19:50;9.27;;;7.60;;
19814;SDS011;10067;53.092;8.800;2024-01-06T05:22:16;10.57;;;7.70;;
19814;SDS011;10067;53.092;8.800;2024-01-06T05:24:43;12.73;;;8.97;;
19814;SDS011;10067;53.092;8.800;2024-01-06T05:27:09;10.77;;;8.87;;
19814;SDS011;10067;53.092;8.800;2024-01-06T05:29:35;9.97;;;8.00;;
19814;SDS011;10067;53.092;8.800;2024-01-06T05:32:03;12.07;;;8.30;;
19814;SDS011;10067;53.092;8.800;2024-01-06T05:34:29;10.50;;;8.57;;
19814;SDS011;10067;53.092;8.800;2024-01-06T05:36:56;9.57;;;7.83;;
19814;SDS011;10067;53.092;8.800;2024-01-06T05:39:23;10.00;;;8.20;;
19814;SDS011;10067;53.092;8.800;2024-01-06T05:41:50;10.43;;;8.57;;
19814;SDS011;10067;53.092;8.800;2024-01-06T05:44:16;10.60;;;8.27;;
19814;SDS011;10067;53.092;8.800;2024-01-06T05:46:42;9.43;;;8.30;;
19814;SDS011;10067;53.092;8.800;2024-01-06T05:49:10;10.57;;;8.87;;
19814;SDS011;10067;53.092;8.800;2024-01-06T05:51:36;13.20;;;9.07;;
19814;SDS011;10067;53.092;8.800;2024-01-06T05:54:03;10.50;;;8.90;;
19814;SDS011;10067;53.092;8.800;2024-01-06T05:56:29;10.10;;;8.50;;
19814;SDS011;10067;53.092;8.800;2024-01-06T05:58:55;11.27;;;8.00;;
19814;SDS011;10067;53.092;8.800;2024-01-06T06:01:22;10.83;;;8.70;;
19814;SDS011;10067;53.092;8.800;2024-01-06T06:03:48;12.57;;;9.17;;
19814;SDS011;10067;53.092;8.800;2024-01-06T06:06:17;10.80;;;8.87;;
19814;SDS011;10067;53.092;8.800;2024-01-06T06:08:43;12.73;;;9.43;;
19814;SDS011;10067;53.092;8.800;2024-01-06T06:11:10;13.93;;;9.50;;
19814;SDS011;10067;53.092;8.800;2024-01-06T06:13:37;11.30;;;8.80;;
19814;SDS011;10067;53.092;8.800;2024-01-06T06:16:03;10.93;;;8.57;;
19814;SDS011;10067;53.092;8.800;2024-01-06T06:18:30;11.53;;;9.03;;
19814;SDS011;10067;53.092;8.800;2024-01-06T06:20:57;12.20;;;9.40;;
19814;SDS011;10067;53.092;8.800;2024-01-06T06:23:25;11.57;;;9.57;;
19814;SDS011;10067;53.092;8.800;2024-01-06T06:25:51;12.50;;;10.33;;
19814;SDS011;10067;53.092;8.800;2024-01-06T06:28:18;12.23;;;10.07;;
19814;SDS011;10067;53.092;8.800;2024-01-06T06:30:44;13.10;;;10.43;;
19814;SDS011;10067;53.092;8.800;2024-01-06T06:33:11;13.63;;;10.27;;
19814;SDS011;10067;53.092;8.800;2024-01-06T06:35:37;12.30;;;9.67;;
19814;SDS011;10067;53.092;8.800;2024-01-06T06:38:03;13.30;;;9.67;;
19814;SDS011;10067;53.092;8.800;2024-01-06T06:40:31;13.50;;;10.00;;
19814;SDS011;10067;53.092;8.800;2024-01-06T06:42:57;14.33;;;10.87;;
19814;SDS011;10067;53.092;8.800;2024-01-06T06:45:24;13.53;;;10.17;;
19814;SDS011;10067;53.092;8.800;2024-01-06T06:47:50;14.77;;;10.77;;
19814;SDS011;10067;53.092;8.800;2024-01-06T06:50:16;14.93;;;11.27;;
19814;SDS011;10067;53.092;8.800;2024-01-06T06:52:43;15.43;;;11.47;;
19814;SDS011;10067;53.092;8.800;2024-01-06T06:55:09;15.53;;;11.30;;
19814;SDS011;10067;53.092;8.800;2024-01-06T06:57:37;15.03;;;11.63;;
19814;SDS011;10067;53.092;8.800;2024-01-06T07:00:04;14.53;;;11.83;;
19814;SDS011;10067;53.092;8.800;2024-01-06T07:02:32;18.23;;;12.93;;
19814;SDS011;10067;53.092;8.800;2024-01-06T07:04:58;14.73;;;11.67;;
19814;SDS011;10067;53.092;8.800;2024-01-06T07:07:25;15.17;;;12.50;;
19814;SDS011;10067;53.092;8.800;2024-01-06T07:09:51;14.83;;;11.73;;
19814;SDS011;10067;53.092;8.800;2024-01-06T07:12:18;16.93;;;12.83;;
19814;SDS011;10067;53.092;8.800;2024-01-06T07:14:45;17.17;;;13.03;;
19814;SDS011;10067;53.092;8.800;2024-01-06T07:17:12;18.73;;;12.83;;
19814;SDS011;10067;53.092;8.800;2024-01-06T07:19:38;20.00;;;13.83;;
19814;SDS011;10067;53.092;8.800;2024-01-06T07:22:05;18.00;;;13.47;;
19814;SDS011;10067;53.092;8.800;2024-01-06T07:24:31;20.20;;;13.63;;
19814;SDS011;10067;53.092;8.800;2024-01-06T07:26:58;17.20;;;13.73;;
19814;SDS011;10067;53.092;8.800;2024-01-06T07:29:24;15.67;;;12.20;;
19814;SDS011;10067;53.092;8.800;2024-01-06T07:31:52;17.10;;;13.40;;
19814;SDS011;10067;53.092;8.800;2024-01-06T07:34:18;17.97;;;13.20;;
19814;SDS011;10067;53.092;8.800;2024-01-06T07:36:45;17.57;;;13.63;;
19814;SDS011;10067;53.092;8.800;2024-01-06T07:39:11;17.87;;;13.40;;
19814;SDS011;10067;53.092;8.800;2024-01-06T07:41:37;17.33;;;13.63;;
19814;SDS011;10067;53.092;8.800;2024-01-06T07:44:04;19.40;;;13.60;;
19814;SDS011;10067;53.092;8.800;2024-01-06T07:46:30;19.00;;;14.67;;
19814;SDS011;10067;53.092;8.800;2024-01-06T07:48:58;20.97;;;14.40;;
19814;SDS011;10067;53.092;8.800;2024-01-06T07:51:25;19.40;;;14.73;;
19814;SDS011;10067;53.092;8.800;2024-01-06T07:53:51;17.70;;;13.77;;
19814;SDS011;10067;53.092;8.800;2024-01-06T07:56:17;18.93;;;14.00;;
19814;SDS011;10067;53.092;8.800;2024-01-06T07:58:44;19.23;;;13.77;;
19814;SDS011;10067;53.092;8.800;2024-01-06T08:01:10;20.77;;;15.37;;
19814;SDS011;10067;53.092;8.800;2024-01-06T08:03:37;20.87;;;14.10;;
19814;SDS011;10067;53.092;8.800;2024-01-06T08:06:05;19.77;;;14.73;;
19814;SDS011;10067;53.092;8.800;2024-01-06T08:08:31;20.33;;;14.63;;
19814;SDS011;10067;53.092;8.800;2024-01-06T08:10:57;17.97;;;13.97;;
19814;SDS011;10067;53.092;8.800;2024-01-06T08:13:24;18.73;;;14.03;;
19814;SDS011;10067;53.092;8.800;2024-01-06T08:15:50;18.97;;;14.97;;
19814;SDS011;10067;53.092;8.800;2024-01-06T08:18:17;18.57;;;14.40;;
19814;SDS011;10067;53.092;8.800;2024-01-06T08:20:43;20.40;;;15.07;;
19814;SDS011;10067;53.092;8.800;2024-01-06T08:23:11;20.10;;;14.37;;
19814;SDS011;10067;53.092;8.800;2024-01-06T08:25:37;19.80;;;14.83;;
19814;SDS011;10067;53.092;8.800;2024-01-06T08:28:04;19.53;;;14.97;;
19814;SDS011;10067;53.092;8.800;2024-01-06T08:30:30;20.00;;;15.47;;
19814;SDS011;10067;53.092;8.800;2024-01-06T08:32:56;22.23;;;16.13;;
19814;SDS011;10067;53.092;8.800;2024-01-06T08:35:24;21.27;;;15.33;;
19814;SDS011;10067;53.092;8.800;2024-01-06T08:37:51;20.47;;;15.27;;
19814;SDS011;10067;53.092;8.800;2024-01-06T08:40:18;21.17;;;15.93;;
19814;SDS011;10067;53.092;8.800;2024-01-06T08:42:45;22.30;;;16.83;;
19814;SDS011;10067;53.092;8.800;2024-01-06T08:45:11;26.23;;;17.33;;
19814;SDS011;10067;53.092;8.800;2024-01-06T08:47:38;23.23;;;17.97;;
19814;SDS011;10067;53.092;8.800;2024-01-06T08:50:05;21.07;;;16.03;;
19814;SDS011;10067;53.092;8.800;2024-01-06T08:52:31;24.07;;;15.87;;
19814;SDS011;10067;53.092;8.800;2024-01-06T08:54:57;23.73;;;17.43;;
19814;SDS011;10067;53.092;8.800;2024-01-06T08:57:25;25.40;;;17.80;;
19814;SDS011;10067;53.092;8.800;2024-01-06T08:59:51;22.00;;;17.00;;
19814;SDS011;10067;53.092;8.800;2024-01-06T09:02:18;22.17;;;17.53;;
19814;SDS011;10067;53.092;8.800;2024-01-06T09:04:44;25.10;;;17.90;;
19814;SDS011;10067;53.092;8.800;2024-01-06T09:07:10;24.33;;;17.63;;
19814;SDS011;10067;53.092;8.800;2024-01-06T09:09:37;25.03;;;17.80;;
19814;SDS011;10067;53.092;8.800;2024-01-06T09:12:03;24.63;;;18.27;;
19814;SDS011;10067;53.092;8.800;2024-01-06T09:14:31;26.07;;;17.80;;
19814;SDS011;10067;53.092;8.800;2024-01-06T09:16:57;24.00;;;17.73;;
19814;SDS011;10067;53.092;8.800;2024-01-06T09:19:24;26.17;;;17.93;;
19814;SDS011;10067;53.092;8.800;2024-01-06T09:21:53;26.80;;;18.73;;
19814;SDS011;10067;53.092;8.800;2024-01-06T09:24:19;24.00;;;17.83;;
19814;SDS011;10067;53.092;8.800;2024-01-06T09:26:45;25.33;;;18.47;;
19814;SDS011;10067;53.092;8.800;2024-01-06T09:29:12;25.53;;;18.93;;
19814;SDS011;10067;53.092;8.800;2024-01-06T09:31:40;24.77;;;18.20;;
19814;SDS011;10067;53.092;8.800;2024-01-06T09:34:08;26.77;;;18.63;;
19814;SDS011;10067;53.092;8.800;2024-01-06T09:36:35;28.07;;;17.57;;
19814;SDS011;10067;53.092;8.800;2024-01-06T09:39:01;23.03;;;17.77;;
19814;SDS011;10067;53.092;8.800;2024-01-06T09:41:29;23.60;;;17.37;;
19814;SDS011;10067;53.092;8.800;2024-01-06T09:43:56;24.63;;;18.27;;
19814;SDS011;10067;53.092;8.800;2024-01-06T09:46:23;22.10;;;17.37;;
19814;SDS011;10067;53.092;8.800;2024-01-06T09:48:52;28.67;;;18.80;;
19814;SDS011;10067;53.092;8.800;2024-01-06T09:51:19;25.93;;;17.37;;
19814;SDS011;10067;53.092;8.800;2024-01-06T09:53:48;23.90;;;17.83;;
19814;SDS011;10067;53.092;8.800;2024-01-06T09:56:14;24.03;;;18.63;;
19814;SDS011;10067;53.092;8.800;2024-01-06T09:58:41;26.97;;;18.80;;
19814;SDS011;10067;53.092;8.800;2024-01-06T10:01:08;24.73;;;17.93;;
19814;SDS011;10067;53.092;8.800;2024-01-06T10:03:34;25.90;;;18.37;;
19814;SDS011;10067;53.092;8.800;2024-01-06T10:06:03;27.77;;;17.90;;
19814;SDS011;10067;53.092;8.800;2024-01-06T10:08:29;24.13;;;18.10;;
19814;SDS011;10067;53.092;8.800;2024-01-06T10:10:57;23.93;;;17.60;;
19814;SDS011;10067;53.092;8.800;2024-01-06T10:13:24;28.13;;;19.60;;
19814;SDS011;10067;53.092;8.800;2024-01-06T10:15:51;27.57;;;18.07;;
19814;SDS011;10067;53.092;8.800;2024-01-06T10:18:18;23.07;;;17.53;;
19814;SDS011;10067;53.092;8.800;2024-01-06T10:20:44;26.60;;;19.03;;
19814;SDS011;10067;53.092;8.800;2024-01-06T10:23:12;26.93;;;18.03;;
19814;SDS011;10067;53.092;8.800;2024-01-06T10:25:38;24.77;;;18.33;;
19814;SDS011;10067;53.092;8.800;2024-01-06T10:28:10;27.33;;;18.63;;
19814;SDS011;10067;53.092;8.800;2024-01-06T10:30:37;25.83;;;19.23;;
19814;SDS011;10067;53.092;8.800;2024-01-06T10:33:07;22.90;;;18.00;;
19814;SDS011;10067;53.092;8.800;2024-01-06T10:35:33;25.97;;;18.93;;
19814;SDS011;10067;53.092;8.800;2024-01-06T10:38:01;26.53;;;18.57;;
19814;SDS011;10067;53.092;8.800;2024-01-06T10:40:29;27.50;;;20.03;;
19814;SDS011;10067;53.092;8.800;2024-01-06T10:42:56;26.67;;;19.47;;
19814;SDS011;10067;53.092;8.800;2024-01-06T10:45:22;24.13;;;17.37;;
19814;SDS011;10067;53.092;8.800;2024-01-06T10:47:49;26.70;;;18.10;;
19814;SDS011;10067;53.092;8.800;2024-01-06T10:50:16;27.30;;;18.80;;
19814;SDS011;10067;53.092;8.800;2024-01-06T10:52:43;25.33;;;18.87;;
19814;SDS011;10067;53.092;8.800;2024-01-06T10:55:09;25.80;;;18.63;;
19814;SDS011;10067;53.092;8.800;2024-01-06T10:57:37;26.60;;;19.70;;
19814;SDS011;10067;53.092;8.800;2024-01-06T11:00:06;28.37;;;20.47;;
19814;SDS011;10067;53.092;8.800;2024-01-06T11:02:34;25.87;;;19.23;;
19814;SDS011;10067;53.092;8.800;2024-01-06T11:05:01;26.90;;;19.27;;
19814;SDS011;10067;53.092;8.800;2024-01-06T11:07:28;29.13;;;20.23;;
19814;SDS011;10067;53.092;8.800;2024-01-06T11:09:56;29.13;;;19.50;;
19814;SDS011;10067;53.092;8.800;2024-01-06T11:12:23;30.43;;;21.60;;
19814;SDS011;10067;53.092;8.800;2024-01-06T11:14:52;30.87;;;20.67;;
19814;SDS011;10067;53.092;8.800;2024-01-06T11:20:04;28.63;;;20.17;;
19814;SDS011;10067;53.092;8.800;2024-01-06T11:22:31;31.13;;;19.97;;
19814;SDS011;10067;53.092;8.800;2024-01-06T11:25:03;29.70;;;21.10;;
19814;SDS011;10067;53.092;8.800;2024-01-06T11:27:29;27.43;;;19.17;;
19814;SDS011;10067;53.092;8.800;2024-01-06T11:29:59;34.10;;;20.87;;
19814;SDS011;10067;53.092;8.800;2024-01-06T11:32:27;29.97;;;20.70;;
19814;SDS011;10067;53.092;8.800;2024-01-06T11:34:54;28.53;;;20.07;;
19814;SDS011;10067;53.092;8.800;2024-01-06T11:37:23;31.20;;;20.57;;
19814;SDS011;10067;53.092;8.800;2024-01-06T11:39:49;30.30;;;20.67;;
19814;SDS011;10067;53.092;8.800;2024-01-06T11:42:16;33.23;;;22.10;;
19814;SDS011;10067;53.092;8.800;2024-01-06T11:44:43;33.00;;;22.33;;
19814;SDS011;10067;53.092;8.800;2024-01-06T11:47:11;32.53;;;21.13;;
19814;SDS011;10067;53.092;8.800;2024-01-06T11:49:38;31.73;;;21.93;;
19814;SDS011;10067;53.092;8.800;2024-01-06T11:52:04;30.50;;;21.10;;
19814;SDS011;10067;53.092;8.800;2024-01-06T11:54:31;33.20;;;22.00;;
19814;SDS011;10067;53.092;8.800;2024-01-06T11:56:58;31.40;;;21.00;;
19814;SDS011;10067;53.092;8.800;2024-01-06T11:59:24;36.27;;;23.07;;
19814;SDS011;10067;53.092;8.800;2024-01-06T12:01:51;88.80;;;48.80;;
19814;SDS011;10067;53.092;8.800;2024-01-06T12:04:18;63.60;;;42.77;;
19814;SDS011;10067;53.092;8.800;2024-01-06T12:06:47;71.07;;;48.20;;
19814;SDS011;10067;53.092;8.800;2024-01-06T12:09:13;161.83;;;81.53;;
19814;SDS011;10067;53.092;8.800;2024-01-06T12:11:44;106.67;;;58.20;;
19814;SDS011;10067;53.092;8.800;2024-01-06T12:14:12;163.47;;;85.93;;
19814;SDS011;10067;53.092;8.800;2024-01-06T12:16:38;139.93;;;67.67;;
19814;SDS011;10067;53.092;8.800;2024-01-06T12:19:04;97.37;;;53.30;;
19814;SDS011;10067;53.092;8.800;2024-01-06T12:21:32;164.40;;;71.50;;
19814;SDS011;10067;53.092;8.800;2024-01-06T12:24:18;232.53;;;101.17;;
19814;SDS011;10067;53.092;8.800;2024-01-06T12:26:45;86.63;;;47.43;;
19814;SDS011;10067;53.092;8.800;2024-01-06T12:29:12;79.37;;;50.87;;
19814;SDS011;10067;53.092;8.800;2024-01-06T12:31:38;66.73;;;42.23;;
19814;SDS011;10067;53.092;8.800;2024-01-06T12:34:05;50.00;;;32.17;;
19814;SDS011;10067;53.092;8.800;2024-01-06T12:36:33;38.97;;;26.93;;
19814;SDS011;10067;53.092;8.800;2024-01-06T12:39:00;49.63;;;36.90;;
19814;SDS011;10067;53.092;8.800;2024-01-06T12:41:27;40.93;;;29.43;;
19814;SDS011;10067;53.092;8.800;2024-01-06T12:43:53;38.80;;;27.00;;
19814;SDS011;10067;53.092;8.800;2024-01-06T12:46:20;36.20;;;24.90;;
19814;SDS011;10067;53.092;8.800;2024-01-06T12:48:46;37.10;;;25.63;;
19814;SDS011;10067;53.092;8.800;2024-01-06T12:51:12;34.67;;;25.23;;
19814;SDS011;10067;53.092;8.800;2024-01-06T12:53:40;38.83;;;26.80;;
19814;SDS011;10067;53.092;8.800;2024-01-06T12:56:06;35.47;;;24.87;;
19814;SDS011;10067;53.092;8.800;2024-01-06T12:58:33;35.67;;;24.53;;
19814;SDS011;10067;53.092;8.800;2024-01-06T13:01:00;37.23;;;23.83;;
19814;SDS011;10067;53.092;8.800;2024-01-06T13:03:27;37.07;;;24.27;;
19814;SDS011;10067;53.092;8.800;2024-01-06T13:05:54;33.30;;;22.13;;
19814;SDS011;10067;53.092;8.800;2024-01-06T13:08:20;33.03;;;23.40;;
19814;SDS011;10067;53.092;8.800;2024-01-06T13:10:48;43.17;;;29.17;;
19814;SDS011;10067;53.092;8.800;2024-01-06T13:13:14;38.83;;;25.63;;
19814;SDS011;10067;53.092;8.800;2024-01-06T13:15:40;33.70;;;22.50;;
19814;SDS011;10067;53.092;8.800;2024-01-06T13:18:07;33.07;;;22.07;;
19814;SDS011;10067;53.092;8.800;2024-01-06T13:20:33;31.00;;;19.20;;
19814;SDS011;10067;53.092;8.800;2024-01-06T13:22:59;34.90;;;23.57;;
19814;SDS011;10067;53.092;8.800;2024-01-06T13:25:26;84.83;;;43.33;;
19814;SDS011;10067;53.092;8.800;2024-01-06T13:27:54;98.23;;;48.97;;
19814;SDS011;10067;53.092;8.800;2024-01-06T13:30:21;111.17;;;54.43;;
19814;SDS011;10067;53.092;8.800;2024-01-06T13:32:47;73.23;;;43.13;;
19814;SDS011;10067;53.092;8.800;2024-01-06T13:35:15;42.07;;;27.77;;
19814;SDS011;10067;53.092;8.800;2024-01-06T13:37:42;46.53;;;31.40;;
19814;SDS011;10067;53.092;8.800;2024-01-06T13:40:10;40.30;;;27.83;;
19814;SDS011;10067;53.092;8.800;2024-01-06T13:42:37;37.63;;;24.53;;
19814;SDS011;10067;53.092;8.800;2024-01-06T13:45:05;52.07;;;34.43;;
19814;SDS011;10067;53.092;8.800;2024-01-06T13:47:32;51.53;;;33.13;;
19814;SDS011;10067;53.092;8.800;2024-01-06T13:49:58;84.90;;;52.20;;
19814;SDS011;10067;53.092;8.800;2024-01-06T13:52:25;39.63;;;26.00;;
19814;SDS011;10067;53.092;8.800;2024-01-06T13:54:51;37.93;;;26.30;;
19814;SDS011;10067;53.092;8.800;2024-01-06T13:57:18;42.37;;;28.67;;
19814;SDS011;10067;53.092;8.800;2024-01-06T13:59:45;46.83;;;28.17;;
19814;SDS011;10067;53.092;8.800;2024-01-06T14:02:14;135.93;;;56.90;;
19814;SDS011;10067;53.092;8.800;2024-01-06T14:04:41;138.40;;;62.97;;
19814;SDS011;10067;53.092;8.800;2024-01-06T14:07:07;52.00;;;33.60;;
19814;SDS011;10067;53.092;8.800;2024-01-06T14:09:35;42.27;;;29.33;;
19814;SDS011;10067;53.092;8.800;2024-01-06T14:12:01;35.37;;;25.97;;
19814;SDS011;10067;53.092;8.800;2024-01-06T14:14:30;34.23;;;24.10;;
19814;SDS011;10067;53.092;8.800;2024-01-06T14:16:57;32.60;;;24.30;;
19814;SDS011;10067;53.092;8.800;2024-01-06T14:19:25;32.67;;;23.33;;
19814;SDS011;10067;53.092;8.800;2024-01-06T14:21:51;32.53;;;23.17;;
19814;SDS011;10067;53.092;8.800;2024-01-06T14:24:17;34.10;;;26.60;;
19814;SDS011;10067;53.092;8.800;2024-01-06T14:26:48;29.80;;;21.57;;